createdAt,value
2023-05-17T00:01:46.026Z,9.03
2023-05-17T00:04:13.130Z,5.57
2023-05-17T00:06:39.586Z,2.97
2023-05-17T00:09:06.146Z,3.07
2023-05-17T00:11:32.647Z,3.17
2023-05-17T00:13:59.004Z,5.90
2023-05-17T00:16:25.398Z,5.67
2023-05-17T00:18:51.999Z,6.57
2023-05-17T00:21:18.506Z,4.70
2023-05-17T00:23:44.873Z,7.67
2023-05-17T00:26:11.416Z,4.83
2023-05-17T00:28:37.803Z,4.10
2023-05-17T00:31:04.236Z,5.67
2023-05-17T00:33:30.668Z,6.10
2023-05-17T00:35:57.222Z,7.23
2023-05-17T00:38:23.752Z,5.13
2023-05-17T00:40:50.757Z,4.90
2023-05-17T00:43:17.112Z,3.27
2023-05-17T00:45:43.645Z,5.93
2023-05-17T00:48:10.340Z,5.80
2023-05-17T00:50:37.257Z,5.57
2023-05-17T00:53:03.670Z,5.73
2023-05-17T00:55:30.745Z,3.40
2023-05-17T00:57:57.476Z,3.37
2023-05-17T01:00:24.295Z,3.77
2023-05-17T01:02:50.898Z,6.23
2023-05-17T01:05:17.728Z,5.17
2023-05-17T01:07:44.180Z,5.10
2023-05-17T01:10:10.836Z,3.67
2023-05-17T01:12:58.459Z,2.70
2023-05-17T01:15:30.231Z,3.47
2023-05-17T01:18:20.140Z,4.87
2023-05-17T01:20:48.379Z,4.77
2023-05-17T01:23:31.358Z,6.40
2023-05-17T01:26:08.810Z,3.73
2023-05-17T01:28:38.334Z,5.80
2023-05-17T01:31:05.811Z,4.33
2023-05-17T01:33:32.831Z,5.17
2023-05-17T01:35:59.268Z,3.70
2023-05-17T01:38:25.692Z,4.33
2023-05-17T01:41:02.326Z,4.17
2023-05-17T01:43:41.598Z,3.20
2023-05-17T01:46:28.687Z,5.50
2023-05-17T01:49:06.718Z,3.40
2023-05-17T01:51:37.139Z,4.37
2023-05-17T01:54:11.349Z,4.80
2023-05-17T01:56:42.954Z,4.97
2023-05-17T01:59:11.642Z,4.17
2023-05-17T02:01:39.508Z,6.83
2023-05-17T02:04:06.056Z,4.50
2023-05-17T02:06:32.780Z,6.10
2023-05-17T02:09:02.545Z,7.70
2023-05-17T02:11:29.037Z,3.20
2023-05-17T02:13:55.572Z,3.90
2023-05-17T02:16:22.159Z,4.10
2023-05-17T02:18:48.688Z,4.13
2023-05-17T02:21:15.205Z,9.73
2023-05-17T02:23:41.592Z,4.87
2023-05-17T02:26:08.032Z,5.03
2023-05-17T02:28:34.819Z,5.70
2023-05-17T02:31:01.261Z,3.47
2023-05-17T02:33:28.116Z,5.87
2023-05-17T02:35:54.540Z,4.60
2023-05-17T02:38:20.990Z,5.23
2023-05-17T02:40:47.398Z,5.90
2023-05-17T02:43:13.851Z,3.50
2023-05-17T02:45:40.262Z,4.93
2023-05-17T02:48:06.942Z,4.47
2023-05-17T02:50:33.589Z,4.03
2023-05-17T02:52:59.947Z,5.63
2023-05-17T02:55:26.603Z,3.93
2023-05-17T02:57:53.507Z,3.43
2023-05-17T03:00:20.069Z,5.57
2023-05-17T03:02:48.563Z,3.73
2023-05-17T03:05:15.143Z,4.33
2023-05-17T03:07:42.482Z,3.43
2023-05-17T03:10:09.093Z,4.43
2023-05-17T03:12:35.544Z,4.60
2023-05-17T03:15:02.106Z,3.87
2023-05-17T03:17:28.632Z,2.77
2023-05-17T03:19:55.281Z,5.77
2023-05-17T03:22:22.294Z,5.43
2023-05-17T03:24:48.739Z,3.10
2023-05-17T03:27:15.319Z,3.63
2023-05-17T03:29:41.924Z,5.07
2023-05-17T03:32:08.726Z,2.53
2023-05-17T03:34:35.103Z,2.60
2023-05-17T03:37:01.676Z,6.30
2023-05-17T03:39:28.100Z,4.73
2023-05-17T03:41:54.966Z,5.27
2023-05-17T03:44:21.554Z,3.23
2023-05-17T03:46:47.896Z,4.13
2023-05-17T03:49:14.300Z,3.30
2023-05-17T03:51:40.833Z,6.00
2023-05-17T03:54:07.239Z,2.93
2023-05-17T03:56:33.665Z,3.10
2023-05-17T03:59:00.108Z,3.20
2023-05-17T04:01:26.703Z,4.83
2023-05-17T04:03:53.284Z,2.73
2023-05-17T04:06:19.875Z,6.07
2023-05-17T04:08:46.293Z,5.53
2023-05-17T04:11:13.918Z,6.27
2023-05-17T04:13:41.282Z,3.97
2023-05-17T04:16:08.987Z,3.07
2023-05-17T04:18:36.971Z,2.53
2023-05-17T04:21:04.117Z,3.90
2023-05-17T04:23:31.908Z,2.90
2023-05-17T04:25:58.574Z,4.03
2023-05-17T04:28:26.115Z,3.67
2023-05-17T04:30:53.022Z,7.73
2023-05-17T04:33:20.075Z,4.33
2023-05-17T04:35:46.806Z,8.07
2023-05-17T04:38:13.476Z,3.40
2023-05-17T04:40:40.848Z,4.00
2023-05-17T04:43:07.252Z,5.57
2023-05-17T04:45:33.877Z,5.00
2023-05-17T04:48:00.748Z,4.73
2023-05-17T04:50:27.530Z,3.67
2023-05-17T04:52:53.933Z,6.13
2023-05-17T04:55:20.353Z,5.27
2023-05-17T04:57:46.793Z,6.47
2023-05-17T05:00:15.535Z,3.97
2023-05-17T05:02:42.401Z,4.47
2023-05-17T05:05:12.306Z,4.30
2023-05-17T05:07:39.959Z,4.73
2023-05-17T05:10:07.164Z,8.30
2023-05-17T05:12:33.625Z,7.60
2023-05-17T05:15:01.183Z,8.63
2023-05-17T05:17:31.057Z,9.37
2023-05-17T05:19:57.756Z,13.60
2023-05-17T05:22:24.348Z,10.33
2023-05-17T05:24:51.109Z,11.57
2023-05-17T05:27:17.503Z,7.17
2023-05-17T05:29:44.203Z,12.50
2023-05-17T05:32:10.708Z,9.60
2023-05-17T05:34:38.901Z,8.63
2023-05-17T05:37:05.420Z,11.70
2023-05-17T05:39:33.097Z,14.57
2023-05-17T05:41:59.643Z,11.80
2023-05-17T05:44:26.107Z,17.20
2023-05-17T05:46:52.582Z,15.43
2023-05-17T05:49:19.449Z,14.87
2023-05-17T05:51:45.889Z,17.70
2023-05-17T05:54:13.368Z,14.53
2023-05-17T05:56:40.013Z,17.97
2023-05-17T05:59:06.474Z,19.00
2023-05-17T06:01:34.026Z,16.83
2023-05-17T06:04:00.598Z,20.30
2023-05-17T06:06:27.201Z,24.93
2023-05-17T06:08:54.103Z,21.83
2023-05-17T06:11:21.016Z,21.23
2023-05-17T06:13:50.328Z,20.30
2023-05-17T06:16:16.682Z,25.60
2023-05-17T06:18:43.706Z,18.10
2023-05-17T06:21:10.207Z,21.20
2023-05-17T06:23:36.582Z,25.93
2023-05-17T06:26:03.047Z,21.57
2023-05-17T06:28:29.467Z,22.93
2023-05-17T06:30:55.909Z,23.57
2023-05-17T06:33:22.532Z,24.73
2023-05-17T06:35:57.019Z,23.07
2023-05-17T06:38:24.790Z,22.23
2023-05-17T06:40:55.519Z,26.07
2023-05-17T06:43:22.321Z,18.80
2023-05-17T06:45:48.801Z,27.50
2023-05-17T06:48:15.726Z,25.43
2023-05-17T06:50:42.677Z,24.73
2023-05-17T06:53:09.158Z,18.90
2023-05-17T06:55:35.660Z,24.53
2023-05-17T06:58:02.186Z,19.23
2023-05-17T07:00:29.179Z,27.07
2023-05-17T07:02:56.112Z,19.07
2023-05-17T07:05:24.144Z,21.60
2023-05-17T07:07:50.635Z,21.13
2023-05-17T07:10:18.578Z,15.10
2023-05-17T07:12:45.153Z,16.00
2023-05-17T07:15:11.679Z,21.27
2023-05-17T07:17:38.206Z,22.10
2023-05-17T07:20:06.221Z,14.00
2023-05-17T07:22:33.058Z,19.87
2023-05-17T07:24:59.527Z,21.73
2023-05-17T07:27:25.929Z,16.97
2023-05-17T07:29:52.420Z,17.10
2023-05-17T07:32:18.814Z,17.67
2023-05-17T07:34:46.050Z,15.47
2023-05-17T07:37:18.607Z,13.80
2023-05-17T07:39:45.120Z,12.87
2023-05-17T07:42:14.355Z,13.60
2023-05-17T07:44:40.752Z,10.50
2023-05-17T07:47:07.247Z,9.57
2023-05-17T07:49:33.800Z,8.63
2023-05-17T07:52:00.303Z,8.27
2023-05-17T07:54:29.882Z,9.73
2023-05-17T07:56:56.663Z,12.77
2023-05-17T07:59:23.897Z,7.63
2023-05-17T08:01:51.041Z,8.40
2023-05-17T08:04:19.129Z,10.03
2023-05-17T08:06:46.987Z,8.63
2023-05-17T08:09:13.419Z,8.60
2023-05-17T08:11:45.802Z,8.97
2023-05-17T08:14:16.679Z,7.57
2023-05-17T08:16:45.335Z,9.20
2023-05-17T08:19:13.281Z,6.33
2023-05-17T08:21:43.259Z,8.00
2023-05-17T08:24:09.983Z,7.77
2023-05-17T08:26:36.465Z,10.23
2023-05-17T08:29:04.668Z,9.80
2023-05-17T08:31:32.206Z,7.37
2023-05-17T08:33:58.677Z,7.30
2023-05-17T08:36:25.173Z,10.10
2023-05-17T08:38:52.494Z,9.17
2023-05-17T08:41:19.450Z,8.77
2023-05-17T08:43:47.169Z,12.03
2023-05-17T08:46:15.835Z,7.57
2023-05-17T08:48:44.536Z,10.63
2023-05-17T08:51:12.040Z,7.97
2023-05-17T08:53:38.713Z,10.93
2023-05-17T08:56:06.918Z,8.60
2023-05-17T08:58:48.170Z,11.10
2023-05-17T09:01:24.391Z,7.73
2023-05-17T09:03:52.346Z,10.10
2023-05-17T09:06:22.962Z,9.50
2023-05-17T09:08:54.934Z,6.20
2023-05-17T09:11:27.778Z,5.57
2023-05-17T09:13:58.720Z,11.27
2023-05-17T09:16:26.440Z,9.83
2023-05-17T09:18:57.511Z,8.30
2023-05-17T09:21:25.786Z,11.83
2023-05-17T09:24:05.466Z,8.33
2023-05-17T09:26:44.846Z,8.73
2023-05-17T09:29:16.025Z,7.93
2023-05-17T09:31:43.819Z,9.60
2023-05-17T09:34:10.802Z,10.60
2023-05-17T09:36:38.672Z,5.10
2023-05-17T09:39:07.806Z,6.93
2023-05-17T09:41:41.367Z,9.10
2023-05-17T09:44:11.801Z,10.77
2023-05-17T09:46:41.901Z,10.43
2023-05-17T09:49:09.302Z,8.13
2023-05-17T09:51:38.732Z,6.00
2023-05-17T09:54:07.301Z,8.10
2023-05-17T09:56:34.967Z,8.90
2023-05-17T09:59:02.205Z,10.33
2023-05-17T10:01:30.946Z,9.80
2023-05-17T10:04:04.420Z,7.47
2023-05-17T10:06:44.730Z,6.40
2023-05-17T10:09:14.888Z,11.63
2023-05-17T10:11:47.024Z,9.60
2023-05-17T10:14:22.770Z,10.77
2023-05-17T10:16:51.035Z,8.90
2023-05-17T10:19:20.150Z,6.10
2023-05-17T10:21:50.050Z,8.67
2023-05-17T10:24:17.461Z,8.60
2023-05-17T10:26:44.199Z,7.40
2023-05-17T10:29:10.862Z,6.90
2023-05-17T10:31:37.418Z,8.13
2023-05-17T10:34:06.318Z,8.03
2023-05-17T10:36:33.880Z,5.53
2023-05-17T10:39:01.856Z,5.93
2023-05-17T10:41:34.139Z,7.60
2023-05-17T10:44:07.982Z,6.47
2023-05-17T10:46:35.704Z,5.37
2023-05-17T10:49:02.603Z,9.47
2023-05-17T10:51:34.819Z,10.77
2023-05-17T10:54:04.263Z,8.47
2023-05-17T10:56:31.431Z,5.77
2023-05-17T10:59:23.934Z,7.80
2023-05-17T11:01:54.481Z,6.87
2023-05-17T11:04:39.354Z,9.73
2023-05-17T11:07:27.807Z,7.73
2023-05-17T11:10:00.505Z,7.00
2023-05-17T11:12:44.080Z,8.43
2023-05-17T11:15:12.535Z,6.87
2023-05-17T11:17:51.666Z,10.17
2023-05-17T11:20:28.227Z,8.00
2023-05-17T11:23:15.945Z,8.23
2023-05-17T11:25:42.686Z,7.97
2023-05-17T11:28:20.155Z,8.00
2023-05-17T11:30:53.589Z,6.67
2023-05-17T11:33:32.772Z,6.07
2023-05-17T11:36:05.340Z,5.40
2023-05-17T11:38:32.781Z,7.50
2023-05-17T11:41:26.673Z,5.00
2023-05-17T11:43:54.331Z,6.10
2023-05-17T11:46:22.672Z,7.37
2023-05-17T11:48:53.919Z,6.00
2023-05-17T11:51:23.819Z,5.57
2023-05-17T11:53:54.454Z,8.27
2023-05-17T11:56:29.039Z,5.50
2023-05-17T11:59:04.121Z,8.23
2023-05-17T12:01:43.340Z,4.27
2023-05-17T12:04:09.892Z,5.93
2023-05-17T12:06:36.659Z,6.40
2023-05-17T12:09:03.494Z,6.37
2023-05-17T12:11:30.452Z,5.63
2023-05-17T12:13:57.038Z,6.57
2023-05-17T12:16:23.929Z,8.93
2023-05-17T12:18:52.078Z,5.77
2023-05-17T12:21:21.788Z,5.47
2023-05-17T12:23:51.657Z,10.47
2023-05-17T12:26:21.395Z,8.17
2023-05-17T12:28:59.633Z,6.40
2023-05-17T12:31:34.965Z,6.33
2023-05-17T12:34:04.929Z,7.60
2023-05-17T12:36:33.655Z,4.93
2023-05-17T12:39:01.554Z,8.60
2023-05-17T12:41:29.603Z,6.37
2023-05-17T12:44:06.192Z,5.67
2023-05-17T12:46:40.065Z,6.37
2023-05-17T12:49:08.419Z,11.30
2023-05-17T12:51:45.614Z,8.87
2023-05-17T12:54:29.559Z,4.33
2023-05-17T12:56:56.314Z,6.57
2023-05-17T12:59:25.498Z,7.23
2023-05-17T13:01:55.689Z,4.57
2023-05-17T13:04:31.638Z,7.53
2023-05-17T13:07:00.322Z,6.33
2023-05-17T13:09:30.806Z,5.97
2023-05-17T13:12:05.020Z,5.53
2023-05-17T13:14:35.237Z,5.87
2023-05-17T13:17:02.961Z,6.07
2023-05-17T13:19:29.628Z,10.33
2023-05-17T13:21:56.235Z,5.17
2023-05-17T13:24:22.718Z,6.10
2023-05-17T13:26:49.253Z,6.33
2023-05-17T13:29:16.363Z,6.83
2023-05-17T13:31:43.912Z,4.23
2023-05-17T13:34:10.515Z,4.93
2023-05-17T13:36:37.007Z,8.87
2023-05-17T13:39:04.556Z,5.00
2023-05-17T13:41:31.136Z,7.03
2023-05-17T13:43:57.549Z,9.77
2023-05-17T13:46:23.934Z,4.73
2023-05-17T13:48:50.509Z,6.47
2023-05-17T13:51:16.973Z,7.00
2023-05-17T13:53:44.153Z,4.03
2023-05-17T13:56:10.846Z,6.23
2023-05-17T13:58:37.298Z,5.10
2023-05-17T14:01:04.465Z,5.43
2023-05-17T14:03:31.104Z,6.13
2023-05-17T14:05:57.770Z,4.80
2023-05-17T14:08:24.238Z,8.07
2023-05-17T14:10:50.878Z,4.27
2023-05-17T14:13:17.313Z,6.33
2023-05-17T14:15:43.674Z,8.20
2023-05-17T14:18:10.502Z,3.90
2023-05-17T14:20:37.054Z,6.93
2023-05-17T14:23:03.503Z,9.30
2023-05-17T14:25:30.014Z,6.33
2023-05-17T14:27:56.436Z,6.13
2023-05-17T14:30:22.920Z,7.83
2023-05-17T14:32:49.695Z,5.47
2023-05-17T14:35:17.301Z,4.03
2023-05-17T14:37:43.915Z,8.67
2023-05-17T14:40:12.077Z,7.60
2023-05-17T14:42:39.789Z,9.73
2023-05-17T14:45:06.886Z,8.47
2023-05-17T14:47:36.551Z,4.53
2023-05-17T14:50:03.907Z,4.83
2023-05-17T14:52:30.552Z,5.57
2023-05-17T14:54:56.960Z,7.00
2023-05-17T14:57:23.456Z,6.80
2023-05-17T14:59:49.968Z,9.90
2023-05-17T15:02:16.347Z,7.93
2023-05-17T15:04:43.126Z,6.53
2023-05-17T15:07:09.898Z,9.87
2023-05-17T15:09:41.374Z,5.33
2023-05-17T15:12:11.252Z,11.43
2023-05-17T15:14:40.349Z,5.30
2023-05-17T15:17:06.965Z,4.50
2023-05-17T15:19:33.627Z,7.07
2023-05-17T15:22:01.533Z,5.67
2023-05-17T15:24:28.309Z,6.40
2023-05-17T15:26:54.882Z,5.17
2023-05-17T15:29:21.366Z,7.83
2023-05-17T15:31:47.726Z,7.80
2023-05-17T15:34:14.155Z,7.07
2023-05-17T15:36:40.895Z,6.00
2023-05-17T15:39:07.546Z,4.00
2023-05-17T15:41:33.961Z,7.03
2023-05-17T15:44:00.520Z,6.57
2023-05-17T15:46:27.172Z,5.47
2023-05-17T15:48:53.657Z,9.67
2023-05-17T15:51:20.107Z,7.03
2023-05-17T15:53:48.077Z,5.40
2023-05-17T15:56:17.230Z,9.27
2023-05-17T15:58:43.696Z,4.37
2023-05-17T16:01:10.117Z,7.10
2023-05-17T16:03:36.817Z,5.90
2023-05-17T16:06:04.736Z,6.03
2023-05-17T16:08:31.332Z,7.73
2023-05-17T16:10:57.777Z,6.53
2023-05-17T16:13:24.685Z,11.30
2023-05-17T16:15:51.213Z,7.40
2023-05-17T16:18:17.795Z,11.50
2023-05-17T16:20:44.468Z,6.80
2023-05-17T16:23:10.836Z,7.20
2023-05-17T16:25:37.593Z,7.93
2023-05-17T16:28:04.106Z,7.30
2023-05-17T16:30:30.565Z,7.63
2023-05-17T16:32:57.124Z,5.10
2023-05-17T16:35:23.794Z,6.10
2023-05-17T16:37:50.144Z,6.87
2023-05-17T16:40:16.856Z,7.00
2023-05-17T16:42:44.574Z,4.77
2023-05-17T16:45:11.333Z,4.73
2023-05-17T16:47:37.818Z,9.10
2023-05-17T16:50:05.620Z,6.30
2023-05-17T16:52:32.074Z,7.03
2023-05-17T16:55:03.189Z,5.93
2023-05-17T16:57:31.688Z,5.30
2023-05-17T17:00:00.713Z,6.17
2023-05-17T17:02:28.487Z,5.07
2023-05-17T17:04:55.146Z,3.73
2023-05-17T17:07:21.589Z,9.20
2023-05-17T17:09:48.025Z,7.07
2023-05-17T17:12:24.206Z,6.27
2023-05-17T17:14:51.597Z,5.73
2023-05-17T17:17:18.117Z,5.20
2023-05-17T17:19:44.540Z,6.97
2023-05-17T17:22:11.783Z,8.07
2023-05-17T17:24:38.560Z,3.30
2023-05-17T17:27:05.630Z,5.93
2023-05-17T17:29:35.390Z,9.03
2023-05-17T17:32:02.626Z,6.93
2023-05-17T17:34:29.118Z,7.20
2023-05-17T17:36:55.688Z,10.40
2023-05-17T17:39:22.268Z,5.40
2023-05-17T17:41:48.638Z,6.53
2023-05-17T17:44:15.040Z,5.90
2023-05-17T17:46:41.621Z,8.13
2023-05-17T17:49:08.057Z,7.20
2023-05-17T17:51:34.525Z,7.90
2023-05-17T17:54:05.630Z,6.10
2023-05-17T17:56:32.807Z,6.83
2023-05-17T17:58:59.814Z,5.87
2023-05-17T18:01:27.123Z,5.67
2023-05-17T18:03:53.639Z,6.80
2023-05-17T18:06:20.053Z,8.10
2023-05-17T18:08:46.624Z,6.10
2023-05-17T18:11:13.325Z,7.27
2023-05-17T18:13:39.739Z,8.60
2023-05-17T18:16:06.722Z,9.30
2023-05-17T18:18:33.560Z,9.57
2023-05-17T18:20:59.974Z,7.43
2023-05-17T18:23:26.536Z,7.77
2023-05-17T18:25:52.998Z,8.87
2023-05-17T18:28:26.869Z,8.30
2023-05-17T18:31:04.473Z,8.77
2023-05-17T18:33:31.522Z,8.27
2023-05-17T18:35:57.977Z,7.50
2023-05-17T18:38:24.434Z,6.40
2023-05-17T18:40:51.173Z,6.47
2023-05-17T18:43:17.627Z,10.17
2023-05-17T18:45:44.057Z,8.83
2023-05-17T18:48:10.589Z,10.60
2023-05-17T18:50:37.034Z,7.93
2023-05-17T18:53:03.488Z,7.53
2023-05-17T18:55:29.929Z,8.33
2023-05-17T18:57:56.396Z,10.03
2023-05-17T19:00:22.973Z,12.17
2023-05-17T19:02:49.389Z,8.10
2023-05-17T19:05:15.906Z,7.17
2023-05-17T19:07:42.375Z,7.83
2023-05-17T19:10:09.480Z,10.03
2023-05-17T19:12:36.051Z,9.37
2023-05-17T19:15:03.867Z,10.63
2023-05-17T19:17:30.421Z,9.27
2023-05-17T19:19:56.913Z,6.13
2023-05-17T19:22:23.483Z,9.23
2023-05-17T19:24:50.835Z,8.17
2023-05-17T19:27:19.538Z,9.00
2023-05-17T19:29:47.157Z,8.57
2023-05-17T19:32:13.817Z,11.53
2023-05-17T19:34:40.327Z,5.53
2023-05-17T19:37:06.761Z,8.93
2023-05-17T19:39:33.189Z,10.80
2023-05-17T19:41:59.607Z,7.73
2023-05-17T19:44:26.270Z,9.47
2023-05-17T19:46:52.731Z,7.23
2023-05-17T19:49:19.279Z,7.40
2023-05-17T19:51:46.742Z,9.23
2023-05-17T19:54:13.189Z,9.43
2023-05-17T19:56:39.647Z,9.33
2023-05-17T19:59:06.239Z,7.40
2023-05-17T20:01:32.666Z,9.03
2023-05-17T20:03:59.288Z,9.40
2023-05-17T20:06:25.971Z,8.07
2023-05-17T20:08:52.390Z,11.77
2023-05-17T20:11:18.895Z,9.57
2023-05-17T20:13:45.451Z,8.40
2023-05-17T20:16:14.881Z,11.63
2023-05-17T20:18:43.349Z,10.67
2023-05-17T20:21:15.816Z,10.70
2023-05-17T20:23:42.548Z,9.33
2023-05-17T20:26:16.176Z,10.07
2023-05-17T20:28:46.227Z,7.87
2023-05-17T20:31:13.639Z,9.80
2023-05-17T20:33:40.093Z,6.50
2023-05-17T20:36:06.604Z,15.17
2023-05-17T20:38:32.971Z,6.97
2023-05-17T20:41:00.743Z,6.53
2023-05-17T20:43:28.818Z,6.83
2023-05-17T20:45:55.626Z,7.57
2023-05-17T20:48:22.089Z,10.60
2023-05-17T20:50:49.026Z,10.77
2023-05-17T20:53:15.555Z,6.07
2023-05-17T20:55:44.378Z,8.40
2023-05-17T20:58:11.253Z,10.27
2023-05-17T21:00:38.310Z,9.10
2023-05-17T21:03:05.006Z,11.83
2023-05-17T21:05:35.964Z,8.73
2023-05-17T21:08:02.856Z,11.93
2023-05-17T21:10:29.799Z,8.90
2023-05-17T21:12:56.646Z,12.43
2023-05-17T21:15:23.253Z,9.07
2023-05-17T21:17:50.174Z,15.07
2023-05-17T21:20:17.076Z,11.77
2023-05-17T21:22:44.349Z,11.73
2023-05-17T21:25:11.003Z,11.10
2023-05-17T21:27:37.449Z,9.50
2023-05-17T21:30:04.150Z,13.67
2023-05-17T21:32:30.691Z,11.67
2023-05-17T21:34:59.517Z,8.40
2023-05-17T21:37:26.033Z,12.63
2023-05-17T21:39:52.522Z,8.43
2023-05-17T21:42:18.954Z,11.13
2023-05-17T21:44:45.294Z,12.73
2023-05-17T21:47:11.705Z,8.83
2023-05-17T21:49:38.100Z,10.37
2023-05-17T21:52:04.814Z,12.07
2023-05-17T21:54:31.269Z,12.97
2023-05-17T21:56:57.660Z,12.17
2023-05-17T21:59:24.981Z,16.33
2023-05-17T22:01:53.866Z,7.10
2023-05-17T22:04:20.528Z,7.37
2023-05-17T22:06:46.924Z,14.00
2023-05-17T22:09:13.817Z,9.67
2023-05-17T22:11:40.537Z,8.37
2023-05-17T22:14:07.590Z,9.77
2023-05-17T22:16:35.931Z,11.50
2023-05-17T22:19:03.711Z,8.13
2023-05-17T22:21:32.046Z,9.47
2023-05-17T22:23:59.647Z,8.23
2023-05-17T22:26:27.592Z,9.13
2023-05-17T22:28:54.423Z,8.43
2023-05-17T22:31:20.939Z,7.23
2023-05-17T22:33:47.472Z,6.43
2023-05-17T22:36:14.247Z,6.77
2023-05-17T22:38:42.694Z,9.13
2023-05-17T22:41:10.508Z,6.70
2023-05-17T22:43:37.376Z,7.80
2023-05-17T22:46:04.225Z,7.73
2023-05-17T22:48:32.034Z,7.60
2023-05-17T22:51:00.970Z,8.80
2023-05-17T22:53:29.319Z,10.93
2023-05-17T22:55:55.952Z,8.27
2023-05-17T22:58:26.142Z,6.17
2023-05-17T23:00:53.042Z,7.63
2023-05-17T23:03:20.287Z,10.27
2023-05-17T23:05:46.789Z,11.67
2023-05-17T23:08:15.698Z,7.47
2023-05-17T23:10:45.153Z,7.00
2023-05-17T23:13:12.446Z,7.20
2023-05-17T23:15:40.620Z,7.03
2023-05-17T23:18:07.147Z,10.03
2023-05-17T23:20:34.856Z,9.97
2023-05-17T23:23:01.717Z,14.00
2023-05-17T23:25:29.051Z,11.03
2023-05-17T23:27:57.968Z,8.27
2023-05-17T23:30:24.796Z,6.97
2023-05-17T23:32:52.193Z,8.70
2023-05-17T23:35:18.868Z,11.30
2023-05-17T23:37:45.355Z,7.07
2023-05-17T23:40:12.712Z,8.93
2023-05-17T23:42:40.466Z,7.37
2023-05-17T23:45:07.590Z,6.53
2023-05-17T23:47:34.033Z,9.17
2023-05-17T23:50:01.096Z,4.33
2023-05-17T23:52:29.964Z,9.47
2023-05-17T23:54:59.182Z,13.33
2023-05-17T23:57:25.648Z,8.43
2023-05-17T23:59:52.219Z,10.10
